Oxford, Massachusetts
Current Conditions -  °F | °C
As of 6:54 PM on Thursday 18 Dec 2014 (Local Time) from KORH Reporting Station
Overcast Overcast  
Wind Chill: 24°   Ceiling: 2600
Heat Index: 33°   Visibility: 10mi
Dew Point: 27°   Wind: 12mph
Humidity: 78%   Direction: 270°W
Pressure: 29.83"   Gusts: NA
Location:  42.12°N, 71.86°W
Report Text: KORH 182354Z 27010KT 10SM OVC026 01/M03 A2983 RMK AO2 SLP113 T00061028 10022 20006 51013
Loading
Personal Weather Stations






























Interactive Weather Map New forecast layout! Learn more

10-Day Weather Forecast

Advertisements
Track Severe Weather on mobile